sensor_id;sensor_type;location;lat;lon;timestamp;pressure;altitude;pressure_sealevel;temperature;humidity
4590;BME280;2307;48.448;9.216;2023-02-08T00:00:48;97172.56;;;-3.32;87.97
4590;BME280;2307;48.448;9.216;2023-02-08T00:03:16;97166.97;;;-3.26;88.30
4590;BME280;2307;48.448;9.216;2023-02-08T00:05:42;97156.22;;;-3.33;89.00
4590;BME280;2307;48.448;9.216;2023-02-08T00:08:09;97147.78;;;-3.35;83.92
4590;BME280;2307;48.448;9.216;2023-02-08T00:10:35;97141.25;;;-3.28;79.45
4590;BME280;2307;48.448;9.216;2023-02-08T00:13:02;97139.59;;;-3.29;77.11
4590;BME280;2307;48.448;9.216;2023-02-08T00:15:28;97140.63;;;-3.31;78.77
4590;BME280;2307;48.448;9.216;2023-02-08T00:17:55;97139.91;;;-3.20;71.40
4590;BME280;2307;48.448;9.216;2023-02-08T00:20:22;97135.97;;;-3.26;76.15
4590;BME280;2307;48.448;9.216;2023-02-08T00:22:49;97135.56;;;-3.33;78.58
4590;BME280;2307;48.448;9.216;2023-02-08T00:25:15;97140.25;;;-3.38;78.94
4590;BME280;2307;48.448;9.216;2023-02-08T00:27:42;97129.19;;;-3.40;80.57
4590;BME280;2307;48.448;9.216;2023-02-08T00:30:08;97134.78;;;-3.46;79.19
4590;BME280;2307;48.448;9.216;2023-02-08T00:32:35;97133.13;;;-3.47;80.14
4590;BME280;2307;48.448;9.216;2023-02-08T00:35:01;97135.50;;;-3.44;76.01
4590;BME280;2307;48.448;9.216;2023-02-08T00:37:29;97131.19;;;-3.56;77.28
4590;BME280;2307;48.448;9.216;2023-02-08T00:39:55;97130.44;;;-3.58;78.01
4590;BME280;2307;48.448;9.216;2023-02-08T00:42:22;97132.53;;;-3.63;78.62
4590;BME280;2307;48.448;9.216;2023-02-08T00:44:50;97130.88;;;-3.64;80.57
4590;BME280;2307;48.448;9.216;2023-02-08T00:47:17;97140.56;;;-3.55;81.37
4590;BME280;2307;48.448;9.216;2023-02-08T00:49:43;97142.94;;;-3.64;82.80
4590;BME280;2307;48.448;9.216;2023-02-08T00:52:09;97133.88;;;-3.70;83.13
4590;BME280;2307;48.448;9.216;2023-02-08T00:54:37;97130.69;;;-3.86;87.41
4590;BME280;2307;48.448;9.216;2023-02-08T00:57:04;97135.84;;;-3.86;87.86
4590;BME280;2307;48.448;9.216;2023-02-08T00:59:30;97131.84;;;-3.90;87.78
4590;BME280;2307;48.448;9.216;2023-02-08T01:01:56;97128.63;;;-3.94;87.90
4590;BME280;2307;48.448;9.216;2023-02-08T01:04:23;97128.31;;;-3.89;86.52
4590;BME280;2307;48.448;9.216;2023-02-08T01:06:49;97128.44;;;-3.78;84.25
4590;BME280;2307;48.448;9.216;2023-02-08T01:09:16;97136.69;;;-3.86;84.70
4590;BME280;2307;48.448;9.216;2023-02-08T01:11:43;97135.00;;;-3.87;80.97
4590;BME280;2307;48.448;9.216;2023-02-08T01:14:10;97136.78;;;-3.87;79.80
4590;BME280;2307;48.448;9.216;2023-02-08T01:16:36;97136.69;;;-3.86;79.17
4590;BME280;2307;48.448;9.216;2023-02-08T01:19:02;97142.66;;;-3.85;77.44
4590;BME280;2307;48.448;9.216;2023-02-08T01:21:30;97131.84;;;-3.78;77.15
4590;BME280;2307;48.448;9.216;2023-02-08T01:23:57;97133.59;;;-3.78;79.26
4590;BME280;2307;48.448;9.216;2023-02-08T01:26:23;97120.78;;;-3.80;77.62
4590;BME280;2307;48.448;9.216;2023-02-08T01:28:52;97132.34;;;-3.85;76.11
4590;BME280;2307;48.448;9.216;2023-02-08T01:31:19;97134.22;;;-3.87;77.12
4590;BME280;2307;48.448;9.216;2023-02-08T01:33:46;97129.47;;;-3.93;77.61
4590;BME280;2307;48.448;9.216;2023-02-08T01:36:13;97131.94;;;-3.92;77.26
4590;BME280;2307;48.448;9.216;2023-02-08T01:38:40;97119.94;;;-3.93;77.61
4590;BME280;2307;48.448;9.216;2023-02-08T01:41:08;97117.28;;;-4.04;79.06
4590;BME280;2307;48.448;9.216;2023-02-08T01:46:19;97106.41;;;-4.21;80.46
4590;BME280;2307;48.448;9.216;2023-02-08T01:48:45;97107.66;;;-4.14;81.10
4590;BME280;2307;48.448;9.216;2023-02-08T01:51:12;97103.25;;;-4.25;82.17
4590;BME280;2307;48.448;9.216;2023-02-08T01:53:40;97102.09;;;-4.08;82.23
4590;BME280;2307;48.448;9.216;2023-02-08T01:56:07;97099.00;;;-4.13;79.67
4590;BME280;2307;48.448;9.216;2023-02-08T01:58:36;97105.50;;;-4.20;79.48
4590;BME280;2307;48.448;9.216;2023-02-08T02:01:04;97096.22;;;-4.10;79.76
4590;BME280;2307;48.448;9.216;2023-02-08T02:03:32;97108.63;;;-4.15;79.53
4590;BME280;2307;48.448;9.216;2023-02-08T02:06:00;97094.97;;;-4.17;79.68
4590;BME280;2307;48.448;9.216;2023-02-08T02:08:28;97100.34;;;-4.20;79.82
4590;BME280;2307;48.448;9.216;2023-02-08T02:10:55;97087.97;;;-4.15;72.28
4590;BME280;2307;48.448;9.216;2023-02-08T02:13:22;97093.94;;;-4.02;72.42
4590;BME280;2307;48.448;9.216;2023-02-08T02:15:48;97086.00;;;-3.99;72.90
4590;BME280;2307;48.448;9.216;2023-02-08T02:18:16;97097.06;;;-3.97;72.46
4590;BME280;2307;48.448;9.216;2023-02-08T02:20:51;97091.69;;;-4.07;76.41
4590;BME280;2307;48.448;9.216;2023-02-08T02:23:37;97095.38;;;-3.98;74.02
4590;BME280;2307;48.448;9.216;2023-02-08T02:29:02;97095.38;;;-3.98;74.55
4590;BME280;2307;48.448;9.216;2023-02-08T02:31:45;97089.72;;;-4.03;75.21
4590;BME280;2307;48.448;9.216;2023-02-08T02:34:15;97086.72;;;-4.10;77.18
4590;BME280;2307;48.448;9.216;2023-02-08T02:36:46;97087.56;;;-4.09;77.46
4590;BME280;2307;48.448;9.216;2023-02-08T02:39:15;97086.13;;;-4.13;74.20
4590;BME280;2307;48.448;9.216;2023-02-08T02:41:46;97084.97;;;-4.09;77.53
4590;BME280;2307;48.448;9.216;2023-02-08T02:44:34;97078.56;;;-4.29;79.70
4590;BME280;2307;48.448;9.216;2023-02-08T02:47:04;97066.50;;;-4.28;80.16
4590;BME280;2307;48.448;9.216;2023-02-08T02:49:35;97074.34;;;-4.30;78.55
4590;BME280;2307;48.448;9.216;2023-02-08T02:52:04;97073.63;;;-4.32;80.08
4590;BME280;2307;48.448;9.216;2023-02-08T02:54:32;97071.47;;;-4.25;79.51
4590;BME280;2307;48.448;9.216;2023-02-08T02:57:01;97073.22;;;-4.39;79.33
4590;BME280;2307;48.448;9.216;2023-02-08T02:59:30;97071.47;;;-4.25;79.76
4590;BME280;2307;48.448;9.216;2023-02-08T03:01:57;97078.66;;;-4.31;80.56
4590;BME280;2307;48.448;9.216;2023-02-08T03:07:08;97083.41;;;-4.24;78.06
4590;BME280;2307;48.448;9.216;2023-02-08T03:09:45;97078.25;;;-4.24;78.63
4590;BME280;2307;48.448;9.216;2023-02-08T03:12:18;97081.88;;;-4.27;78.57
4590;BME280;2307;48.448;9.216;2023-02-08T03:14:49;97072.88;;;-4.34;80.54
4590;BME280;2307;48.448;9.216;2023-02-08T03:17:26;97077.94;;;-4.45;79.96
4590;BME280;2307;48.448;9.216;2023-02-08T03:19:58;97074.94;;;-4.52;80.14
4590;BME280;2307;48.448;9.216;2023-02-08T03:22:31;97077.59;;;-4.53;79.80
4590;BME280;2307;48.448;9.216;2023-02-08T03:25:00;97074.72;;;-4.61;81.61
4590;BME280;2307;48.448;9.216;2023-02-08T03:27:29;97075.00;;;-4.66;80.11
4590;BME280;2307;48.448;9.216;2023-02-08T03:29:58;97066.91;;;-4.60;80.00
4590;BME280;2307;48.448;9.216;2023-02-08T03:32:27;97057.81;;;-4.53;76.28
4590;BME280;2307;48.448;9.216;2023-02-08T03:34:59;97058.97;;;-4.57;76.81
4590;BME280;2307;48.448;9.216;2023-02-08T03:37:30;97067.00;;;-4.61;77.84
4590;BME280;2307;48.448;9.216;2023-02-08T03:40:00;97059.97;;;-4.59;77.99
4590;BME280;2307;48.448;9.216;2023-02-08T03:42:28;97064.84;;;-4.55;76.83
4590;BME280;2307;48.448;9.216;2023-02-08T03:44:56;97067.28;;;-4.66;79.08
4590;BME280;2307;48.448;9.216;2023-02-08T03:47:25;97060.72;;;-4.57;82.26
4590;BME280;2307;48.448;9.216;2023-02-08T03:49:54;97081.75;;;-4.51;82.84
4590;BME280;2307;48.448;9.216;2023-02-08T03:52:21;97078.56;;;-4.42;84.17
4590;BME280;2307;48.448;9.216;2023-02-08T03:54:50;97069.50;;;-4.47;84.13
4590;BME280;2307;48.448;9.216;2023-02-08T03:57:18;97066.50;;;-4.54;83.86
4590;BME280;2307;48.448;9.216;2023-02-08T03:59:47;97075.22;;;-4.56;84.51
4590;BME280;2307;48.448;9.216;2023-02-08T04:02:15;97075.31;;;-4.70;84.85
4590;BME280;2307;48.448;9.216;2023-02-08T04:04:43;97076.25;;;-4.71;85.20
4590;BME280;2307;48.448;9.216;2023-02-08T04:07:11;97071.41;;;-4.76;86.83
4590;BME280;2307;48.448;9.216;2023-02-08T04:09:38;97077.72;;;-4.94;87.53
4590;BME280;2307;48.448;9.216;2023-02-08T04:12:06;97075.97;;;-4.94;87.80
4590;BME280;2307;48.448;9.216;2023-02-08T04:14:32;97072.19;;;-4.88;87.57
4590;BME280;2307;48.448;9.216;2023-02-08T04:16:59;97073.63;;;-4.84;85.94
4590;BME280;2307;48.448;9.216;2023-02-08T04:19:25;97070.66;;;-4.78;86.62
4590;BME280;2307;48.448;9.216;2023-02-08T04:21:51;97075.63;;;-4.75;86.26
4590;BME280;2307;48.448;9.216;2023-02-08T04:24:18;97072.94;;;-4.73;86.43
4590;BME280;2307;48.448;9.216;2023-02-08T04:26:44;97066.81;;;-4.85;85.98
4590;BME280;2307;48.448;9.216;2023-02-08T04:29:12;97070.94;;;-4.95;86.91
4590;BME280;2307;48.448;9.216;2023-02-08T04:31:39;97072.50;;;-4.93;87.25
4590;BME280;2307;48.448;9.216;2023-02-08T04:34:05;97071.25;;;-4.87;86.73
4590;BME280;2307;48.448;9.216;2023-02-08T04:36:31;97070.75;;;-4.92;86.05
4590;BME280;2307;48.448;9.216;2023-02-08T04:38:58;97071.16;;;-4.98;84.97
4590;BME280;2307;48.448;9.216;2023-02-08T04:41:24;97078.31;;;-5.03;85.65
4590;BME280;2307;48.448;9.216;2023-02-08T04:43:50;97066.38;;;-5.04;84.48
4590;BME280;2307;48.448;9.216;2023-02-08T04:46:18;97073.38;;;-5.06;85.86
4590;BME280;2307;48.448;9.216;2023-02-08T04:48:45;97066.16;;;-5.14;86.57
4590;BME280;2307;48.448;9.216;2023-02-08T04:51:11;97057.69;;;-5.16;86.48
4590;BME280;2307;48.448;9.216;2023-02-08T04:53:37;97055.69;;;-4.98;88.51
4590;BME280;2307;48.448;9.216;2023-02-08T04:56:04;97053.59;;;-5.06;89.33
4590;BME280;2307;48.448;9.216;2023-02-08T04:58:30;97045.94;;;-5.07;89.21
4590;BME280;2307;48.448;9.216;2023-02-08T05:00:56;97054.00;;;-5.12;88.49
4590;BME280;2307;48.448;9.216;2023-02-08T05:03:24;97044.31;;;-5.08;90.52
4590;BME280;2307;48.448;9.216;2023-02-08T05:05:55;97047.38;;;-5.16;87.98
4590;BME280;2307;48.448;9.216;2023-02-08T05:08:21;97043.78;;;-5.13;87.52
4590;BME280;2307;48.448;9.216;2023-02-08T05:10:48;97045.31;;;-5.23;83.25
4590;BME280;2307;48.448;9.216;2023-02-08T05:13:14;97038.88;;;-5.30;83.80
4590;BME280;2307;48.448;9.216;2023-02-08T05:15:40;97041.16;;;-5.26;83.31
4590;BME280;2307;48.448;9.216;2023-02-08T05:18:07;97046.16;;;-5.37;82.62
4590;BME280;2307;48.448;9.216;2023-02-08T05:20:34;97036.84;;;-5.25;81.28
4590;BME280;2307;48.448;9.216;2023-02-08T05:23:01;97039.84;;;-5.19;80.42
4590;BME280;2307;48.448;9.216;2023-02-08T05:25:27;97033.34;;;-5.24;79.49
4590;BME280;2307;48.448;9.216;2023-02-08T05:27:53;97041.09;;;-5.39;77.52
4590;BME280;2307;48.448;9.216;2023-02-08T05:30:20;97035.75;;;-5.36;79.31
4590;BME280;2307;48.448;9.216;2023-02-08T05:32:46;97026.72;;;-5.28;78.59
4590;BME280;2307;48.448;9.216;2023-02-08T05:35:13;97037.03;;;-5.28;80.52
4590;BME280;2307;48.448;9.216;2023-02-08T05:37:40;97042.53;;;-5.20;79.58
4590;BME280;2307;48.448;9.216;2023-02-08T05:40:07;97044.22;;;-5.33;79.29
4590;BME280;2307;48.448;9.216;2023-02-08T05:42:34;97042.75;;;-5.38;80.93
4590;BME280;2307;48.448;9.216;2023-02-08T05:45:00;97044.38;;;-5.22;79.52
4590;BME280;2307;48.448;9.216;2023-02-08T05:47:27;97043.00;;;-5.28;81.96
4590;BME280;2307;48.448;9.216;2023-02-08T05:49:53;97053.94;;;-5.24;80.95
4590;BME280;2307;48.448;9.216;2023-02-08T05:52:19;97046.63;;;-5.30;82.96
4590;BME280;2307;48.448;9.216;2023-02-08T05:54:47;97047.31;;;-5.28;83.11
4590;BME280;2307;48.448;9.216;2023-02-08T05:57:13;97050.41;;;-5.36;81.41
4590;BME280;2307;48.448;9.216;2023-02-08T05:59:40;97049.91;;;-5.28;79.99
4590;BME280;2307;48.448;9.216;2023-02-08T06:02:06;97053.69;;;-5.34;79.50
4590;BME280;2307;48.448;9.216;2023-02-08T06:04:32;97047.19;;;-5.40;77.08
4590;BME280;2307;48.448;9.216;2023-02-08T06:06:59;97050.78;;;-5.42;78.37
4590;BME280;2307;48.448;9.216;2023-02-08T06:09:25;97050.66;;;-5.26;78.26
4590;BME280;2307;48.448;9.216;2023-02-08T06:11:53;97052.03;;;-5.35;78.25
4590;BME280;2307;48.448;9.216;2023-02-08T06:14:19;97050.69;;;-5.41;80.44
4590;BME280;2307;48.448;9.216;2023-02-08T06:16:45;97046.25;;;-5.39;80.63
4590;BME280;2307;48.448;9.216;2023-02-08T06:19:12;97056.34;;;-5.36;81.78
4590;BME280;2307;48.448;9.216;2023-02-08T06:21:38;97057.31;;;-5.37;81.69
4590;BME280;2307;48.448;9.216;2023-02-08T06:24:04;97059.31;;;-5.42;82.38
4590;BME280;2307;48.448;9.216;2023-02-08T06:26:31;97057.63;;;-5.28;85.67
4590;BME280;2307;48.448;9.216;2023-02-08T06:28:59;97057.44;;;-5.25;84.09
4590;BME280;2307;48.448;9.216;2023-02-08T06:31:25;97065.34;;;-5.28;84.30
4590;BME280;2307;48.448;9.216;2023-02-08T06:33:52;97062.78;;;-5.28;83.42
4590;BME280;2307;48.448;9.216;2023-02-08T06:36:18;97064.03;;;-5.21;84.84
4590;BME280;2307;48.448;9.216;2023-02-08T06:38:44;97064.44;;;-5.27;85.38
4590;BME280;2307;48.448;9.216;2023-02-08T06:41:11;97066.84;;;-5.39;86.11
4590;BME280;2307;48.448;9.216;2023-02-08T06:43:37;97069.53;;;-5.40;85.90
4590;BME280;2307;48.448;9.216;2023-02-08T06:46:06;97066.22;;;-5.42;82.03
4590;BME280;2307;48.448;9.216;2023-02-08T06:48:32;97068.72;;;-5.41;79.80
4590;BME280;2307;48.448;9.216;2023-02-08T06:50:59;97068.91;;;-5.44;80.31
4590;BME280;2307;48.448;9.216;2023-02-08T06:53:25;97064.63;;;-5.30;79.49
4590;BME280;2307;48.448;9.216;2023-02-08T06:55:51;97057.63;;;-5.28;79.89
4590;BME280;2307;48.448;9.216;2023-02-08T06:58:18;97058.94;;;-5.36;80.35
4590;BME280;2307;48.448;9.216;2023-02-08T07:00:44;97053.66;;;-5.47;79.26
4590;BME280;2307;48.448;9.216;2023-02-08T07:03:12;97060.78;;;-5.38;81.11
4590;BME280;2307;48.448;9.216;2023-02-08T07:05:40;97069.97;;;-5.33;82.41
4590;BME280;2307;48.448;9.216;2023-02-08T07:08:06;97067.00;;;-5.27;79.65
4590;BME280;2307;48.448;9.216;2023-02-08T07:10:33;97064.38;;;-5.13;75.28
4590;BME280;2307;48.448;9.216;2023-02-08T07:13:00;97062.19;;;-5.19;78.24
4590;BME280;2307;48.448;9.216;2023-02-08T07:15:26;97059.53;;;-5.18;77.18
4590;BME280;2307;48.448;9.216;2023-02-08T07:17:54;97066.38;;;-5.04;77.22
4590;BME280;2307;48.448;9.216;2023-02-08T07:20:22;97070.66;;;-5.17;79.11
4590;BME280;2307;48.448;9.216;2023-02-08T07:22:48;97063.25;;;-5.09;77.71
4590;BME280;2307;48.448;9.216;2023-02-08T07:25:15;97066.56;;;-5.07;78.18
4590;BME280;2307;48.448;9.216;2023-02-08T07:27:41;97067.59;;;-5.10;78.98
4590;BME280;2307;48.448;9.216;2023-02-08T07:30:08;97059.97;;;-5.11;79.94
4590;BME280;2307;48.448;9.216;2023-02-08T07:32:34;97065.84;;;-5.09;81.70
4590;BME280;2307;48.448;9.216;2023-02-08T07:35:01;97073.03;;;-5.14;79.57
4590;BME280;2307;48.448;9.216;2023-02-08T07:37:29;97075.56;;;-5.27;80.50
4590;BME280;2307;48.448;9.216;2023-02-08T07:39:55;97069.78;;;-5.30;81.96
4590;BME280;2307;48.448;9.216;2023-02-08T07:42:22;97070.03;;;-5.21;79.84
4590;BME280;2307;48.448;9.216;2023-02-08T07:44:48;97064.88;;;-5.21;79.21
4590;BME280;2307;48.448;9.216;2023-02-08T07:47:14;97065.13;;;-5.11;80.77
4590;BME280;2307;48.448;9.216;2023-02-08T07:49:41;97062.75;;;-5.14;82.15
4590;BME280;2307;48.448;9.216;2023-02-08T07:52:07;97075.22;;;-5.08;82.60
4590;BME280;2307;48.448;9.216;2023-02-08T07:54:35;97072.72;;;-5.10;79.04
4590;BME280;2307;48.448;9.216;2023-02-08T07:57:01;97076.50;;;-5.01;76.84
4590;BME280;2307;48.448;9.216;2023-02-08T07:59:27;97077.06;;;-5.10;78.03
4590;BME280;2307;48.448;9.216;2023-02-08T08:01:54;97083.47;;;-5.03;80.90
4590;BME280;2307;48.448;9.216;2023-02-08T08:04:20;97072.97;;;-5.00;80.94
4590;BME280;2307;48.448;9.216;2023-02-08T08:06:47;97081.06;;;-4.92;81.17
4590;BME280;2307;48.448;9.216;2023-02-08T08:09:14;97077.97;;;-4.85;79.60
4590;BME280;2307;48.448;9.216;2023-02-08T08:11:42;97085.69;;;-4.85;82.13
4590;BME280;2307;48.448;9.216;2023-02-08T08:14:08;97085.41;;;-4.80;81.82
4590;BME280;2307;48.448;9.216;2023-02-08T08:16:34;97089.69;;;-4.93;77.94
4590;BME280;2307;48.448;9.216;2023-02-08T08:19:01;97091.16;;;-4.89;79.11
4590;BME280;2307;48.448;9.216;2023-02-08T08:21:27;97088.34;;;-4.99;78.75
4590;BME280;2307;48.448;9.216;2023-02-08T08:23:53;97080.09;;;-4.91;80.72
4590;BME280;2307;48.448;9.216;2023-02-08T08:26:20;97080.66;;;-4.86;81.22
4590;BME280;2307;48.448;9.216;2023-02-08T08:28:48;97081.47;;;-4.86;81.20
4590;BME280;2307;48.448;9.216;2023-02-08T08:31:15;97079.00;;;-4.87;82.27
4590;BME280;2307;48.448;9.216;2023-02-08T08:33:42;97079.84;;;-4.74;82.59
4590;BME280;2307;48.448;9.216;2023-02-08T08:36:08;97077.88;;;-4.83;81.57
4590;BME280;2307;48.448;9.216;2023-02-08T08:38:35;97078.19;;;-4.75;83.14
4590;BME280;2307;48.448;9.216;2023-02-08T08:41:05;97064.69;;;-4.66;83.56
4590;BME280;2307;48.448;9.216;2023-02-08T08:43:31;97065.31;;;-4.62;82.92
4590;BME280;2307;48.448;9.216;2023-02-08T08:45:59;97058.22;;;-4.59;81.00
4590;BME280;2307;48.448;9.216;2023-02-08T08:48:25;97062.47;;;-4.58;82.61
4590;BME280;2307;48.448;9.216;2023-02-08T08:50:52;97058.25;;;-4.34;94.37
4590;BME280;2307;48.448;9.216;2023-02-08T08:53:18;97055.78;;;-4.48;86.71
4590;BME280;2307;48.448;9.216;2023-02-08T08:55:46;97063.81;;;-4.40;86.92
4590;BME280;2307;48.448;9.216;2023-02-08T08:58:12;97066.72;;;-4.44;86.50
4590;BME280;2307;48.448;9.216;2023-02-08T09:00:38;97069.66;;;-4.63;89.34
4590;BME280;2307;48.448;9.216;2023-02-08T09:03:06;97068.53;;;-4.59;93.63
4590;BME280;2307;48.448;9.216;2023-02-08T09:05:33;97073.22;;;-4.39;92.58
4590;BME280;2307;48.448;9.216;2023-02-08T09:07:59;97070.84;;;-4.42;94.18
4590;BME280;2307;48.448;9.216;2023-02-08T09:10:27;97063.19;;;-4.43;95.62
4590;BME280;2307;48.448;9.216;2023-02-08T09:12:54;97071.56;;;-4.27;95.47
4590;BME280;2307;48.448;9.216;2023-02-08T09:15:20;97070.22;;;-4.20;94.90
4590;BME280;2307;48.448;9.216;2023-02-08T09:17:46;97066.59;;;-4.17;94.49
4590;BME280;2307;48.448;9.216;2023-02-08T09:20:14;97066.94;;;-4.09;93.53
4590;BME280;2307;48.448;9.216;2023-02-08T09:22:41;97058.22;;;-4.08;94.12
4590;BME280;2307;48.448;9.216;2023-02-08T09:25:07;97061.56;;;-4.06;93.72
4590;BME280;2307;48.448;9.216;2023-02-08T09:27:34;97066.72;;;-3.94;94.62
4590;BME280;2307;48.448;9.216;2023-02-08T09:30:00;97064.84;;;-3.92;94.13
4590;BME280;2307;48.448;9.216;2023-02-08T09:32:29;97068.94;;;-3.89;90.42
4590;BME280;2307;48.448;9.216;2023-02-08T09:34:58;97058.00;;;-3.93;91.17
4590;BME280;2307;48.448;9.216;2023-02-08T09:37:25;97059.38;;;-3.87;91.47
4590;BME280;2307;48.448;9.216;2023-02-08T09:39:52;97053.41;;;-3.64;91.17
4590;BME280;2307;48.448;9.216;2023-02-08T09:42:28;97052.19;;;-3.58;91.38
4590;BME280;2307;48.448;9.216;2023-02-08T09:45:11;97046.25;;;-3.48;91.96
4590;BME280;2307;48.448;9.216;2023-02-08T09:47:40;97042.75;;;-3.47;93.27
4590;BME280;2307;48.448;9.216;2023-02-08T09:50:09;97048.19;;;-3.39;93.33
4590;BME280;2307;48.448;9.216;2023-02-08T09:52:40;97052.50;;;-3.39;92.86
4590;BME280;2307;48.448;9.216;2023-02-08T09:55:12;97049.41;;;-3.32;92.90
4590;BME280;2307;48.448;9.216;2023-02-08T09:57:42;97049.03;;;-3.14;89.72
4590;BME280;2307;48.448;9.216;2023-02-08T10:00:11;97043.91;;;-3.03;88.69
4590;BME280;2307;48.448;9.216;2023-02-08T10:02:39;97052.53;;;-2.92;87.24
4590;BME280;2307;48.448;9.216;2023-02-08T10:05:09;97052.09;;;-2.86;87.91
4590;BME280;2307;48.448;9.216;2023-02-08T10:07:37;97043.31;;;-2.72;86.04
4590;BME280;2307;48.448;9.216;2023-02-08T10:10:07;97039.72;;;-2.58;86.69
4590;BME280;2307;48.448;9.216;2023-02-08T10:12:38;97041.97;;;-2.54;88.73
4590;BME280;2307;48.448;9.216;2023-02-08T10:15:08;97046.78;;;-2.49;89.28
4590;BME280;2307;48.448;9.216;2023-02-08T10:17:46;97046.22;;;-2.42;89.30
4590;BME280;2307;48.448;9.216;2023-02-08T10:20:21;97043.66;;;-2.31;86.90
4590;BME280;2307;48.448;9.216;2023-02-08T10:22:52;97034.75;;;-2.04;79.59
4590;BME280;2307;48.448;9.216;2023-02-08T10:28:15;97034.38;;;-1.67;72.08
4590;BME280;2307;48.448;9.216;2023-02-08T10:30:47;97040.34;;;-1.55;68.27
4590;BME280;2307;48.448;9.216;2023-02-08T10:33:17;97036.78;;;-1.21;65.54
4590;BME280;2307;48.448;9.216;2023-02-08T10:35:47;97042.78;;;-0.88;61.11
4590;BME280;2307;48.448;9.216;2023-02-08T10:38:22;97034.34;;;-0.49;58.96
4590;BME280;2307;48.448;9.216;2023-02-08T10:40:49;97035.97;;;-0.07;56.51
4590;BME280;2307;48.448;9.216;2023-02-08T10:43:20;97032.03;;;0.29;54.67
4590;BME280;2307;48.448;9.216;2023-02-08T10:45:51;97023.25;;;0.70;54.45
4590;BME280;2307;48.448;9.216;2023-02-08T10:48:21;97021.94;;;1.14;51.39
4590;BME280;2307;48.448;9.216;2023-02-08T10:50:52;97018.88;;;1.67;50.25
4590;BME280;2307;48.448;9.216;2023-02-08T10:53:19;97013.97;;;2.10;49.06
4590;BME280;2307;48.448;9.216;2023-02-08T10:55:46;97021.66;;;2.39;47.73
4590;BME280;2307;48.448;9.216;2023-02-08T10:58:13;97011.53;;;2.63;47.34
4590;BME280;2307;48.448;9.216;2023-02-08T11:00:42;97021.50;;;2.95;45.76
4590;BME280;2307;48.448;9.216;2023-02-08T11:03:12;97014.41;;;2.87;45.20
4590;BME280;2307;48.448;9.216;2023-02-08T11:05:40;97008.16;;;3.15;44.96
4590;BME280;2307;48.448;9.216;2023-02-08T11:08:07;97004.72;;;3.33;45.46
4590;BME280;2307;48.448;9.216;2023-02-08T11:10:34;97004.97;;;3.65;44.56
4590;BME280;2307;48.448;9.216;2023-02-08T11:13:01;97001.59;;;3.72;43.89
4590;BME280;2307;48.448;9.216;2023-02-08T11:15:37;97010.69;;;3.86;43.34
4590;BME280;2307;48.448;9.216;2023-02-08T11:18:06;97001.41;;;4.17;43.07
4590;BME280;2307;48.448;9.216;2023-02-08T11:20:40;96987.00;;;4.55;42.45
4590;BME280;2307;48.448;9.216;2023-02-08T11:23:16;96985.78;;;4.75;40.84
4590;BME280;2307;48.448;9.216;2023-02-08T11:25:44;96985.00;;;4.91;40.79
4590;BME280;2307;48.448;9.216;2023-02-08T11:28:20;96991.56;;;5.11;40.79
4590;BME280;2307;48.448;9.216;2023-02-08T11:30:53;96983.22;;;5.24;40.55
4590;BME280;2307;48.448;9.216;2023-02-08T11:33:21;96977.50;;;5.53;40.21
4590;BME280;2307;48.448;9.216;2023-02-08T11:35:55;96974.88;;;5.69;41.78
4590;BME280;2307;48.448;9.216;2023-02-08T11:38:22;96973.88;;;5.62;39.90
4590;BME280;2307;48.448;9.216;2023-02-08T11:40:51;96963.72;;;5.75;39.13
4590;BME280;2307;48.448;9.216;2023-02-08T11:43:19;96960.63;;;5.87;39.14
4590;BME280;2307;48.448;9.216;2023-02-08T11:45:46;96966.31;;;6.07;38.79
4590;BME280;2307;48.448;9.216;2023-02-08T11:48:17;96962.03;;;6.06;37.72
4590;BME280;2307;48.448;9.216;2023-02-08T11:50:49;96957.13;;;6.03;38.14
4590;BME280;2307;48.448;9.216;2023-02-08T11:53:18;96962.47;;;6.26;38.83
4590;BME280;2307;48.448;9.216;2023-02-08T11:55:59;96958.53;;;6.69;38.01
4590;BME280;2307;48.448;9.216;2023-02-08T11:58:26;96949.03;;;6.60;37.38
4590;BME280;2307;48.448;9.216;2023-02-08T12:00:56;96949.34;;;6.34;37.82
4590;BME280;2307;48.448;9.216;2023-02-08T12:03:24;96947.44;;;6.59;36.59
4590;BME280;2307;48.448;9.216;2023-02-08T12:05:54;96944.31;;;6.86;36.36
4590;BME280;2307;48.448;9.216;2023-02-08T12:08:29;96940.94;;;7.00;36.71
4590;BME280;2307;48.448;9.216;2023-02-08T12:11:07;96941.41;;;7.04;35.96
4590;BME280;2307;48.448;9.216;2023-02-08T12:13:40;96948.75;;;6.85;36.65
4590;BME280;2307;48.448;9.216;2023-02-08T12:16:11;96939.00;;;6.71;36.11
4590;BME280;2307;48.448;9.216;2023-02-08T12:18:50;96934.53;;;7.03;34.84
4590;BME280;2307;48.448;9.216;2023-02-08T12:21:21;96933.97;;;7.07;34.84
4590;BME280;2307;48.448;9.216;2023-02-08T12:23:51;96930.44;;;7.23;34.96
4590;BME280;2307;48.448;9.216;2023-02-08T12:26:22;96923.38;;;7.01;35.17
4590;BME280;2307;48.448;9.216;2023-02-08T12:28:56;96926.63;;;6.80;34.76
4590;BME280;2307;48.448;9.216;2023-02-08T12:31:30;96919.84;;;6.85;35.22
4590;BME280;2307;48.448;9.216;2023-02-08T12:34:04;96917.91;;;6.79;35.50
4590;BME280;2307;48.448;9.216;2023-02-08T12:36:44;96903.50;;;6.98;34.87
4590;BME280;2307;48.448;9.216;2023-02-08T12:39:17;96914.97;;;7.05;34.89
4590;BME280;2307;48.448;9.216;2023-02-08T12:42:14;96915.59;;;7.30;36.27
4590;BME280;2307;48.448;9.216;2023-02-08T12:44:45;96912.28;;;7.13;36.26
4590;BME280;2307;48.448;9.216;2023-02-08T12:47:24;96911.63;;;7.11;35.21
4590;BME280;2307;48.448;9.216;2023-02-08T12:49:56;96901.56;;;7.37;35.19
4590;BME280;2307;48.448;9.216;2023-02-08T12:52:30;96899.91;;;7.36;41.54
4590;BME280;2307;48.448;9.216;2023-02-08T12:54:59;96897.03;;;7.98;47.17
4590;BME280;2307;48.448;9.216;2023-02-08T12:57:26;96888.44;;;8.54;38.42
4590;BME280;2307;48.448;9.216;2023-02-08T12:59:55;96890.84;;;8.49;39.13
4590;BME280;2307;48.448;9.216;2023-02-08T13:02:24;96881.06;;;8.65;34.94
4590;BME280;2307;48.448;9.216;2023-02-08T13:04:52;96874.69;;;8.09;34.72
4590;BME280;2307;48.448;9.216;2023-02-08T13:07:25;96880.31;;;8.06;34.41
4590;BME280;2307;48.448;9.216;2023-02-08T13:09:56;96872.34;;;8.14;34.03
4590;BME280;2307;48.448;9.216;2023-02-08T13:12:27;96872.34;;;8.14;34.04
4590;BME280;2307;48.448;9.216;2023-02-08T13:14:56;96869.00;;;8.05;34.33
4590;BME280;2307;48.448;9.216;2023-02-08T13:17:26;96872.97;;;8.01;33.27
4590;BME280;2307;48.448;9.216;2023-02-08T13:19:55;96868.16;;;7.75;33.88
4590;BME280;2307;48.448;9.216;2023-02-08T13:22:22;96865.44;;;7.98;34.56
4590;BME280;2307;48.448;9.216;2023-02-08T13:24:48;96860.00;;;7.70;35.40
4590;BME280;2307;48.448;9.216;2023-02-08T13:27:18;96862.44;;;7.72;34.26
4590;BME280;2307;48.448;9.216;2023-02-08T13:29:45;96862.75;;;7.77;34.42
4590;BME280;2307;48.448;9.216;2023-02-08T13:32:14;96853.94;;;7.99;33.96
4590;BME280;2307;48.448;9.216;2023-02-08T13:34:43;96851.66;;;7.81;34.44
4590;BME280;2307;48.448;9.216;2023-02-08T13:37:18;96846.84;;;7.85;34.96
4590;BME280;2307;48.448;9.216;2023-02-08T13:39:44;96848.03;;;7.97;34.35
4590;BME280;2307;48.448;9.216;2023-02-08T13:42:19;96843.22;;;7.42;34.63